sensor_id;sensor_type;location;lat;lon;timestamp;P1;durP1;ratioP1;P2;durP2;ratioP2
20908;SDS011;10614;53.198;6.570;2023-05-13T00:00:37;11.38;;;6.82;;
20908;SDS011;10614;53.198;6.570;2023-05-13T00:02:42;9.15;;;6.60;;
20908;SDS011;10614;53.198;6.570;2023-05-13T00:04:44;15.25;;;7.53;;
20908;SDS011;10614;53.198;6.570;2023-05-13T00:06:46;10.15;;;7.28;;
20908;SDS011;10614;53.198;6.570;2023-05-13T00:11:00;12.23;;;6.97;;
20908;SDS011;10614;53.198;6.570;2023-05-13T00:15:14;12.77;;;8.40;;
20908;SDS011;10614;53.198;6.570;2023-05-13T00:17:15;12.07;;;7.75;;
20908;SDS011;10614;53.198;6.570;2023-05-13T00:19:18;13.48;;;8.07;;
20908;SDS011;10614;53.198;6.570;2023-05-13T00:21:20;10.32;;;7.25;;
20908;SDS011;10614;53.198;6.570;2023-05-13T00:23:22;11.73;;;7.50;;
20908;SDS011;10614;53.198;6.570;2023-05-13T00:25:24;8.88;;;7.03;;
20908;SDS011;10614;53.198;6.570;2023-05-13T00:27:28;10.80;;;6.80;;
20908;SDS011;10614;53.198;6.570;2023-05-13T00:29:32;9.60;;;6.75;;
20908;SDS011;10614;53.198;6.570;2023-05-13T00:31:34;7.47;;;5.93;;
20908;SDS011;10614;53.198;6.570;2023-05-13T00:33:36;8.32;;;6.30;;
20908;SDS011;10614;53.198;6.570;2023-05-13T00:35:38;9.25;;;6.30;;
20908;SDS011;10614;53.198;6.570;2023-05-13T00:37:40;8.27;;;6.13;;
20908;SDS011;10614;53.198;6.570;2023-05-13T00:39:42;10.05;;;6.68;;
20908;SDS011;10614;53.198;6.570;2023-05-13T00:41:44;7.28;;;6.03;;
20908;SDS011;10614;53.198;6.570;2023-05-13T00:43:47;14.23;;;8.23;;
20908;SDS011;10614;53.198;6.570;2023-05-13T00:45:49;10.20;;;7.20;;
20908;SDS011;10614;53.198;6.570;2023-05-13T00:47:51;10.13;;;7.97;;
20908;SDS011;10614;53.198;6.570;2023-05-13T00:49:53;12.75;;;8.90;;
20908;SDS011;10614;53.198;6.570;2023-05-13T00:51:55;11.27;;;8.05;;
20908;SDS011;10614;53.198;6.570;2023-05-13T00:53:56;12.30;;;8.63;;
20908;SDS011;10614;53.198;6.570;2023-05-13T00:56:02;11.80;;;8.35;;
20908;SDS011;10614;53.198;6.570;2023-05-13T00:58:04;10.63;;;8.10;;
20908;SDS011;10614;53.198;6.570;2023-05-13T01:00:10;10.13;;;7.18;;
20908;SDS011;10614;53.198;6.570;2023-05-13T01:02:14;11.80;;;8.20;;
20908;SDS011;10614;53.198;6.570;2023-05-13T01:04:29;9.75;;;7.55;;
20908;SDS011;10614;53.198;6.570;2023-05-13T01:06:39;12.40;;;7.55;;
20908;SDS011;10614;53.198;6.570;2023-05-13T01:08:55;11.77;;;7.20;;
20908;SDS011;10614;53.198;6.570;2023-05-13T01:11:03;12.15;;;7.60;;
20908;SDS011;10614;53.198;6.570;2023-05-13T01:13:09;10.73;;;7.88;;
20908;SDS011;10614;53.198;6.570;2023-05-13T01:15:16;11.73;;;8.15;;
20908;SDS011;10614;53.198;6.570;2023-05-13T01:17:23;9.57;;;7.85;;
20908;SDS011;10614;53.198;6.570;2023-05-13T01:19:34;11.63;;;8.80;;
20908;SDS011;10614;53.198;6.570;2023-05-13T01:21:43;12.30;;;8.23;;
20908;SDS011;10614;53.198;6.570;2023-05-13T01:23:52;11.23;;;7.80;;
20908;SDS011;10614;53.198;6.570;2023-05-13T01:25:54;11.82;;;8.02;;
20908;SDS011;10614;53.198;6.570;2023-05-13T01:27:56;12.02;;;8.63;;
20908;SDS011;10614;53.198;6.570;2023-05-13T01:29:58;12.30;;;8.82;;
20908;SDS011;10614;53.198;6.570;2023-05-13T01:32:01;12.55;;;9.23;;
20908;SDS011;10614;53.198;6.570;2023-05-13T01:34:03;13.02;;;7.63;;
20908;SDS011;10614;53.198;6.570;2023-05-13T01:36:06;11.63;;;8.35;;
20908;SDS011;10614;53.198;6.570;2023-05-13T01:38:10;12.15;;;8.02;;
20908;SDS011;10614;53.198;6.570;2023-05-13T01:40:14;11.93;;;8.00;;
20908;SDS011;10614;53.198;6.570;2023-05-13T01:42:17;11.07;;;8.40;;
20908;SDS011;10614;53.198;6.570;2023-05-13T01:44:19;12.77;;;8.43;;
20908;SDS011;10614;53.198;6.570;2023-05-13T01:46:21;16.02;;;9.73;;
20908;SDS011;10614;53.198;6.570;2023-05-13T01:48:23;12.07;;;8.73;;
20908;SDS011;10614;53.198;6.570;2023-05-13T01:50:24;12.55;;;9.10;;
20908;SDS011;10614;53.198;6.570;2023-05-13T01:52:26;16.48;;;9.05;;
20908;SDS011;10614;53.198;6.570;2023-05-13T01:54:30;12.55;;;8.63;;
20908;SDS011;10614;53.198;6.570;2023-05-13T01:56:32;13.40;;;9.50;;
20908;SDS011;10614;53.198;6.570;2023-05-13T01:58:34;15.57;;;9.80;;
20908;SDS011;10614;53.198;6.570;2023-05-13T02:00:36;15.30;;;9.10;;
20908;SDS011;10614;53.198;6.570;2023-05-13T02:02:38;13.18;;;9.85;;
20908;SDS011;10614;53.198;6.570;2023-05-13T02:04:40;12.77;;;9.27;;
20908;SDS011;10614;53.198;6.570;2023-05-13T02:06:42;13.57;;;8.23;;
20908;SDS011;10614;53.198;6.570;2023-05-13T02:08:44;18.45;;;9.60;;
20908;SDS011;10614;53.198;6.570;2023-05-13T02:10:54;11.95;;;8.98;;
20908;SDS011;10614;53.198;6.570;2023-05-13T02:12:56;13.38;;;9.35;;
20908;SDS011;10614;53.198;6.570;2023-05-13T02:14:58;13.15;;;9.90;;
20908;SDS011;10614;53.198;6.570;2023-05-13T02:17:00;15.38;;;9.98;;
20908;SDS011;10614;53.198;6.570;2023-05-13T02:19:02;13.48;;;9.45;;
20908;SDS011;10614;53.198;6.570;2023-05-13T02:21:04;13.63;;;9.85;;
20908;SDS011;10614;53.198;6.570;2023-05-13T02:23:06;13.15;;;9.45;;
20908;SDS011;10614;53.198;6.570;2023-05-13T02:25:08;13.30;;;10.07;;
20908;SDS011;10614;53.198;6.570;2023-05-13T02:27:12;16.60;;;11.35;;
20908;SDS011;10614;53.198;6.570;2023-05-13T02:29:15;13.90;;;10.15;;
20908;SDS011;10614;53.198;6.570;2023-05-13T02:31:17;13.43;;;10.40;;
20908;SDS011;10614;53.198;6.570;2023-05-13T02:33:19;13.80;;;9.70;;
20908;SDS011;10614;53.198;6.570;2023-05-13T02:35:21;15.05;;;10.88;;
20908;SDS011;10614;53.198;6.570;2023-05-13T02:37:24;15.05;;;10.75;;
20908;SDS011;10614;53.198;6.570;2023-05-13T02:39:26;14.85;;;10.68;;
20908;SDS011;10614;53.198;6.570;2023-05-13T02:41:28;15.10;;;10.98;;
20908;SDS011;10614;53.198;6.570;2023-05-13T02:43:31;12.50;;;10.45;;
20908;SDS011;10614;53.198;6.570;2023-05-13T02:45:33;12.73;;;10.00;;
20908;SDS011;10614;53.198;6.570;2023-05-13T02:47:35;13.57;;;9.85;;
20908;SDS011;10614;53.198;6.570;2023-05-13T02:49:38;11.93;;;9.43;;
20908;SDS011;10614;53.198;6.570;2023-05-13T02:51:40;18.08;;;11.80;;
20908;SDS011;10614;53.198;6.570;2023-05-13T02:53:43;15.75;;;11.75;;
20908;SDS011;10614;53.198;6.570;2023-05-13T02:55:45;13.75;;;10.88;;
20908;SDS011;10614;53.198;6.570;2023-05-13T02:57:47;14.13;;;9.63;;
20908;SDS011;10614;53.198;6.570;2023-05-13T02:59:50;13.98;;;10.88;;
20908;SDS011;10614;53.198;6.570;2023-05-13T03:01:52;14.25;;;9.93;;
20908;SDS011;10614;53.198;6.570;2023-05-13T03:03:53;16.75;;;11.55;;
20908;SDS011;10614;53.198;6.570;2023-05-13T03:05:55;15.35;;;11.18;;
20908;SDS011;10614;53.198;6.570;2023-05-13T03:07:57;14.60;;;10.85;;
20908;SDS011;10614;53.198;6.570;2023-05-13T03:09:59;16.00;;;11.30;;
20908;SDS011;10614;53.198;6.570;2023-05-13T03:12:01;15.32;;;11.73;;
20908;SDS011;10614;53.198;6.570;2023-05-13T03:14:03;14.00;;;10.40;;
20908;SDS011;10614;53.198;6.570;2023-05-13T03:16:06;14.35;;;10.27;;
20908;SDS011;10614;53.198;6.570;2023-05-13T03:18:08;15.52;;;10.85;;
20908;SDS011;10614;53.198;6.570;2023-05-13T03:20:10;13.45;;;10.57;;
20908;SDS011;10614;53.198;6.570;2023-05-13T03:22:12;15.35;;;11.32;;
20908;SDS011;10614;53.198;6.570;2023-05-13T03:24:14;17.98;;;12.85;;
20908;SDS011;10614;53.198;6.570;2023-05-13T03:26:16;16.25;;;11.27;;
20908;SDS011;10614;53.198;6.570;2023-05-13T03:28:17;18.58;;;12.55;;
20908;SDS011;10614;53.198;6.570;2023-05-13T03:30:19;17.10;;;12.52;;
20908;SDS011;10614;53.198;6.570;2023-05-13T03:32:22;14.90;;;11.52;;
20908;SDS011;10614;53.198;6.570;2023-05-13T03:34:29;15.57;;;11.95;;
20908;SDS011;10614;53.198;6.570;2023-05-13T03:36:31;13.48;;;11.38;;
20908;SDS011;10614;53.198;6.570;2023-05-13T03:38:33;19.38;;;14.35;;
20908;SDS011;10614;53.198;6.570;2023-05-13T03:40:34;17.88;;;14.15;;
20908;SDS011;10614;53.198;6.570;2023-05-13T03:42:36;17.45;;;13.07;;
20908;SDS011;10614;53.198;6.570;2023-05-13T03:44:38;16.58;;;12.35;;
20908;SDS011;10614;53.198;6.570;2023-05-13T03:46:40;20.00;;;13.40;;
20908;SDS011;10614;53.198;6.570;2023-05-13T03:48:44;24.23;;;15.63;;
20908;SDS011;10614;53.198;6.570;2023-05-13T03:50:45;17.90;;;13.27;;
20908;SDS011;10614;53.198;6.570;2023-05-13T03:52:47;19.60;;;14.18;;
20908;SDS011;10614;53.198;6.570;2023-05-13T03:54:49;21.65;;;14.25;;
20908;SDS011;10614;53.198;6.570;2023-05-13T03:56:51;27.92;;;16.48;;
20908;SDS011;10614;53.198;6.570;2023-05-13T03:58:52;19.45;;;15.80;;
20908;SDS011;10614;53.198;6.570;2023-05-13T04:00:54;20.17;;;14.48;;
20908;SDS011;10614;53.198;6.570;2023-05-13T04:02:56;20.40;;;14.85;;
20908;SDS011;10614;53.198;6.570;2023-05-13T04:04:59;18.75;;;14.80;;
20908;SDS011;10614;53.198;6.570;2023-05-13T04:07:01;24.95;;;15.48;;
20908;SDS011;10614;53.198;6.570;2023-05-13T04:09:03;21.67;;;15.30;;
20908;SDS011;10614;53.198;6.570;2023-05-13T04:11:05;20.25;;;14.73;;
20908;SDS011;10614;53.198;6.570;2023-05-13T04:13:06;17.17;;;13.60;;
20908;SDS011;10614;53.198;6.570;2023-05-13T04:15:09;20.60;;;14.57;;
20908;SDS011;10614;53.198;6.570;2023-05-13T04:17:11;15.52;;;13.13;;
20908;SDS011;10614;53.198;6.570;2023-05-13T04:19:12;15.63;;;13.02;;
20908;SDS011;10614;53.198;6.570;2023-05-13T04:21:16;17.35;;;12.93;;
20908;SDS011;10614;53.198;6.570;2023-05-13T04:23:17;19.27;;;13.70;;
20908;SDS011;10614;53.198;6.570;2023-05-13T04:25:19;17.88;;;13.65;;
20908;SDS011;10614;53.198;6.570;2023-05-13T04:27:21;19.70;;;13.75;;
20908;SDS011;10614;53.198;6.570;2023-05-13T04:29:23;19.95;;;15.00;;
20908;SDS011;10614;53.198;6.570;2023-05-13T04:31:25;16.20;;;13.98;;
20908;SDS011;10614;53.198;6.570;2023-05-13T04:33:26;16.88;;;12.65;;
20908;SDS011;10614;53.198;6.570;2023-05-13T04:35:28;17.58;;;13.52;;
20908;SDS011;10614;53.198;6.570;2023-05-13T04:37:31;18.00;;;13.48;;
20908;SDS011;10614;53.198;6.570;2023-05-13T04:39:33;19.20;;;12.57;;
20908;SDS011;10614;53.198;6.570;2023-05-13T04:41:35;13.43;;;10.85;;
20908;SDS011;10614;53.198;6.570;2023-05-13T04:43:37;15.00;;;10.98;;
20908;SDS011;10614;53.198;6.570;2023-05-13T04:45:38;15.85;;;11.18;;
20908;SDS011;10614;53.198;6.570;2023-05-13T04:47:41;15.38;;;11.82;;
20908;SDS011;10614;53.198;6.570;2023-05-13T04:49:42;14.75;;;11.18;;
20908;SDS011;10614;53.198;6.570;2023-05-13T04:51:44;12.80;;;10.10;;
20908;SDS011;10614;53.198;6.570;2023-05-13T04:53:47;17.95;;;11.50;;
20908;SDS011;10614;53.198;6.570;2023-05-13T04:55:49;17.85;;;11.52;;
20908;SDS011;10614;53.198;6.570;2023-05-13T04:57:56;19.80;;;10.93;;
20908;SDS011;10614;53.198;6.570;2023-05-13T04:59:58;17.33;;;11.20;;
20908;SDS011;10614;53.198;6.570;2023-05-13T05:01:59;13.43;;;11.15;;
20908;SDS011;10614;53.198;6.570;2023-05-13T05:04:01;14.70;;;10.63;;
20908;SDS011;10614;53.198;6.570;2023-05-13T05:06:03;15.23;;;10.52;;
20908;SDS011;10614;53.198;6.570;2023-05-13T05:08:05;13.77;;;11.18;;
20908;SDS011;10614;53.198;6.570;2023-05-13T05:10:09;14.82;;;10.65;;
20908;SDS011;10614;53.198;6.570;2023-05-13T05:12:11;13.45;;;9.55;;
20908;SDS011;10614;53.198;6.570;2023-05-13T05:14:13;11.35;;;9.25;;
20908;SDS011;10614;53.198;6.570;2023-05-13T05:16:14;14.55;;;9.93;;
20908;SDS011;10614;53.198;6.570;2023-05-13T05:18:16;12.68;;;9.07;;
20908;SDS011;10614;53.198;6.570;2023-05-13T05:20:18;12.65;;;8.73;;
20908;SDS011;10614;53.198;6.570;2023-05-13T05:22:20;13.65;;;9.75;;
20908;SDS011;10614;53.198;6.570;2023-05-13T05:24:22;12.98;;;9.27;;
20908;SDS011;10614;53.198;6.570;2023-05-13T05:26:25;20.42;;;11.55;;
20908;SDS011;10614;53.198;6.570;2023-05-13T05:28:27;16.27;;;10.85;;
20908;SDS011;10614;53.198;6.570;2023-05-13T05:30:28;13.00;;;9.77;;
20908;SDS011;10614;53.198;6.570;2023-05-13T05:32:31;15.20;;;11.48;;
20908;SDS011;10614;53.198;6.570;2023-05-13T05:34:34;13.43;;;9.73;;
20908;SDS011;10614;53.198;6.570;2023-05-13T05:36:37;12.90;;;10.20;;
20908;SDS011;10614;53.198;6.570;2023-05-13T05:38:39;14.50;;;9.27;;
20908;SDS011;10614;53.198;6.570;2023-05-13T05:40:42;11.15;;;8.95;;
20908;SDS011;10614;53.198;6.570;2023-05-13T05:42:46;11.57;;;8.60;;
20908;SDS011;10614;53.198;6.570;2023-05-13T05:44:48;11.27;;;9.00;;
20908;SDS011;10614;53.198;6.570;2023-05-13T05:46:50;12.07;;;9.00;;
20908;SDS011;10614;53.198;6.570;2023-05-13T05:48:52;12.38;;;8.90;;
20908;SDS011;10614;53.198;6.570;2023-05-13T05:50:55;11.18;;;8.88;;
20908;SDS011;10614;53.198;6.570;2023-05-13T05:52:57;12.68;;;10.00;;
20908;SDS011;10614;53.198;6.570;2023-05-13T05:54:59;15.75;;;10.05;;
20908;SDS011;10614;53.198;6.570;2023-05-13T05:57:02;13.23;;;9.82;;
20908;SDS011;10614;53.198;6.570;2023-05-13T05:59:05;12.55;;;9.82;;
20908;SDS011;10614;53.198;6.570;2023-05-13T06:01:07;12.15;;;9.60;;
20908;SDS011;10614;53.198;6.570;2023-05-13T06:03:10;11.75;;;8.93;;
20908;SDS011;10614;53.198;6.570;2023-05-13T06:05:12;11.43;;;9.32;;
20908;SDS011;10614;53.198;6.570;2023-05-13T06:07:14;12.20;;;8.50;;
20908;SDS011;10614;53.198;6.570;2023-05-13T06:09:17;12.45;;;9.25;;
20908;SDS011;10614;53.198;6.570;2023-05-13T06:11:19;11.55;;;9.70;;
20908;SDS011;10614;53.198;6.570;2023-05-13T06:13:21;13.90;;;9.95;;
20908;SDS011;10614;53.198;6.570;2023-05-13T06:15:24;13.60;;;8.73;;
20908;SDS011;10614;53.198;6.570;2023-05-13T06:17:26;10.02;;;8.15;;
20908;SDS011;10614;53.198;6.570;2023-05-13T06:19:28;10.82;;;7.97;;
20908;SDS011;10614;53.198;6.570;2023-05-13T06:21:30;11.82;;;8.20;;
20908;SDS011;10614;53.198;6.570;2023-05-13T06:23:31;13.10;;;9.27;;
20908;SDS011;10614;53.198;6.570;2023-05-13T06:25:33;11.48;;;8.57;;
20908;SDS011;10614;53.198;6.570;2023-05-13T06:27:35;12.10;;;8.55;;
20908;SDS011;10614;53.198;6.570;2023-05-13T06:29:37;11.07;;;7.95;;
20908;SDS011;10614;53.198;6.570;2023-05-13T06:31:40;10.88;;;8.75;;
20908;SDS011;10614;53.198;6.570;2023-05-13T06:33:42;10.95;;;8.18;;
20908;SDS011;10614;53.198;6.570;2023-05-13T06:35:44;9.18;;;7.35;;
20908;SDS011;10614;53.198;6.570;2023-05-13T06:37:48;10.25;;;8.18;;
20908;SDS011;10614;53.198;6.570;2023-05-13T06:39:50;13.25;;;9.00;;
20908;SDS011;10614;53.198;6.570;2023-05-13T06:41:52;12.13;;;9.10;;
20908;SDS011;10614;53.198;6.570;2023-05-13T06:43:54;10.85;;;8.40;;
20908;SDS011;10614;53.198;6.570;2023-05-13T06:45:56;10.45;;;8.05;;
20908;SDS011;10614;53.198;6.570;2023-05-13T06:47:59;9.15;;;7.35;;
20908;SDS011;10614;53.198;6.570;2023-05-13T06:50:02;9.88;;;7.63;;
20908;SDS011;10614;53.198;6.570;2023-05-13T06:52:05;10.00;;;7.45;;
20908;SDS011;10614;53.198;6.570;2023-05-13T06:54:08;10.65;;;8.30;;
20908;SDS011;10614;53.198;6.570;2023-05-13T06:56:10;8.80;;;7.22;;
20908;SDS011;10614;53.198;6.570;2023-05-13T06:58:12;9.95;;;7.57;;
20908;SDS011;10614;53.198;6.570;2023-05-13T07:00:14;11.98;;;8.65;;
20908;SDS011;10614;53.198;6.570;2023-05-13T07:02:16;8.75;;;7.38;;
20908;SDS011;10614;53.198;6.570;2023-05-13T07:04:20;11.75;;;9.45;;
20908;SDS011;10614;53.198;6.570;2023-05-13T07:06:21;12.43;;;8.18;;
20908;SDS011;10614;53.198;6.570;2023-05-13T07:08:23;10.27;;;7.82;;
20908;SDS011;10614;53.198;6.570;2023-05-13T07:10:25;9.88;;;7.30;;
20908;SDS011;10614;53.198;6.570;2023-05-13T07:12:27;12.73;;;8.70;;
20908;SDS011;10614;53.198;6.570;2023-05-13T07:14:29;10.23;;;7.65;;
20908;SDS011;10614;53.198;6.570;2023-05-13T07:16:30;8.77;;;7.18;;
20908;SDS011;10614;53.198;6.570;2023-05-13T07:18:32;10.70;;;7.35;;
20908;SDS011;10614;53.198;6.570;2023-05-13T07:20:36;13.48;;;8.70;;
20908;SDS011;10614;53.198;6.570;2023-05-13T07:22:37;11.55;;;8.07;;
20908;SDS011;10614;53.198;6.570;2023-05-13T07:24:39;12.13;;;7.50;;
20908;SDS011;10614;53.198;6.570;2023-05-13T07:26:42;11.07;;;8.20;;
20908;SDS011;10614;53.198;6.570;2023-05-13T07:28:43;12.95;;;9.15;;
20908;SDS011;10614;53.198;6.570;2023-05-13T07:30:45;15.38;;;9.77;;
20908;SDS011;10614;53.198;6.570;2023-05-13T07:32:47;11.30;;;8.93;;
20908;SDS011;10614;53.198;6.570;2023-05-13T07:34:49;11.40;;;8.02;;
20908;SDS011;10614;53.198;6.570;2023-05-13T07:36:52;14.80;;;9.85;;
20908;SDS011;10614;53.198;6.570;2023-05-13T07:38:54;14.10;;;9.48;;
20908;SDS011;10614;53.198;6.570;2023-05-13T07:40:56;11.38;;;7.55;;
20908;SDS011;10614;53.198;6.570;2023-05-13T07:42:58;15.25;;;9.20;;
20908;SDS011;10614;53.198;6.570;2023-05-13T07:45:00;12.65;;;8.35;;
20908;SDS011;10614;53.198;6.570;2023-05-13T07:47:02;10.40;;;7.00;;
20908;SDS011;10614;53.198;6.570;2023-05-13T07:49:03;9.55;;;7.10;;
20908;SDS011;10614;53.198;6.570;2023-05-13T07:51:07;9.43;;;6.73;;
20908;SDS011;10614;53.198;6.570;2023-05-13T07:53:11;10.82;;;7.03;;
20908;SDS011;10614;53.198;6.570;2023-05-13T07:55:13;8.02;;;6.57;;
20908;SDS011;10614;53.198;6.570;2023-05-13T07:57:15;8.98;;;6.43;;
20908;SDS011;10614;53.198;6.570;2023-05-13T07:59:16;8.18;;;6.60;;
20908;SDS011;10614;53.198;6.570;2023-05-13T08:01:18;8.40;;;6.57;;
20908;SDS011;10614;53.198;6.570;2023-05-13T08:03:20;8.77;;;6.75;;
20908;SDS011;10614;53.198;6.570;2023-05-13T08:05:22;7.55;;;6.10;;
20908;SDS011;10614;53.198;6.570;2023-05-13T08:07:24;8.23;;;5.55;;
20908;SDS011;10614;53.198;6.570;2023-05-13T08:09:30;8.18;;;5.88;;
20908;SDS011;10614;53.198;6.570;2023-05-13T08:11:31;8.27;;;6.35;;
20908;SDS011;10614;53.198;6.570;2023-05-13T08:13:33;7.82;;;6.38;;
20908;SDS011;10614;53.198;6.570;2023-05-13T08:15:35;8.63;;;6.70;;
20908;SDS011;10614;53.198;6.570;2023-05-13T08:17:38;8.82;;;6.25;;
20908;SDS011;10614;53.198;6.570;2023-05-13T08:19:40;9.80;;;6.22;;
20908;SDS011;10614;53.198;6.570;2023-05-13T08:21:41;10.52;;;6.53;;
20908;SDS011;10614;53.198;6.570;2023-05-13T08:23:43;7.78;;;6.13;;
20908;SDS011;10614;53.198;6.570;2023-05-13T08:25:46;9.52;;;5.97;;
20908;SDS011;10614;53.198;6.570;2023-05-13T08:27:48;8.40;;;6.07;;
20908;SDS011;10614;53.198;6.570;2023-05-13T08:29:50;8.60;;;5.82;;
20908;SDS011;10614;53.198;6.570;2023-05-13T08:31:52;10.48;;;7.78;;
20908;SDS011;10614;53.198;6.570;2023-05-13T08:33:54;8.98;;;6.75;;
20908;SDS011;10614;53.198;6.570;2023-05-13T08:35:56;9.80;;;6.43;;
20908;SDS011;10614;53.198;6.570;2023-05-13T08:37:59;8.68;;;5.80;;
20908;SDS011;10614;53.198;6.570;2023-05-13T08:40:03;10.18;;;6.72;;
20908;SDS011;10614;53.198;6.570;2023-05-13T08:42:07;8.52;;;6.60;;
20908;SDS011;10614;53.198;6.570;2023-05-13T08:44:10;12.27;;;6.70;;
20908;SDS011;10614;53.198;6.570;2023-05-13T08:46:13;7.50;;;5.70;;
20908;SDS011;10614;53.198;6.570;2023-05-13T08:48:16;7.65;;;5.47;;
20908;SDS011;10614;53.198;6.570;2023-05-13T08:50:20;7.57;;;5.15;;
20908;SDS011;10614;53.198;6.570;2023-05-13T08:52:22;12.70;;;6.40;;
20908;SDS011;10614;53.198;6.570;2023-05-13T08:54:25;10.90;;;5.93;;
20908;SDS011;10614;53.198;6.570;2023-05-13T08:56:28;8.68;;;6.22;;
20908;SDS011;10614;53.198;6.570;2023-05-13T08:58:31;7.35;;;5.10;;
20908;SDS011;10614;53.198;6.570;2023-05-13T09:00:33;9.98;;;5.93;;
20908;SDS011;10614;53.198;6.570;2023-05-13T09:02:36;10.00;;;6.00;;
20908;SDS011;10614;53.198;6.570;2023-05-13T09:04:37;8.25;;;6.00;;
20908;SDS011;10614;53.198;6.570;2023-05-13T09:06:41;7.53;;;5.82;;
20908;SDS011;10614;53.198;6.570;2023-05-13T09:08:43;8.13;;;5.32;;
20908;SDS011;10614;53.198;6.570;2023-05-13T09:10:45;7.35;;;5.15;;
20908;SDS011;10614;53.198;6.570;2023-05-13T09:12:47;9.70;;;5.80;;
20908;SDS011;10614;53.198;6.570;2023-05-13T09:14:52;6.50;;;5.20;;
20908;SDS011;10614;53.198;6.570;2023-05-13T09:16:54;7.40;;;5.28;;
20908;SDS011;10614;53.198;6.570;2023-05-13T09:18:57;8.63;;;5.32;;
20908;SDS011;10614;53.198;6.570;2023-05-13T09:23:23;8.73;;;5.50;;
20908;SDS011;10614;53.198;6.570;2023-05-13T09:25:25;9.85;;;6.03;;
20908;SDS011;10614;53.198;6.570;2023-05-13T09:27:34;8.90;;;5.68;;
20908;SDS011;10614;53.198;6.570;2023-05-13T09:29:38;8.02;;;5.95;;
20908;SDS011;10614;53.198;6.570;2023-05-13T09:31:41;11.93;;;6.47;;
20908;SDS011;10614;53.198;6.570;2023-05-13T09:33:50;11.38;;;6.80;;
20908;SDS011;10614;53.198;6.570;2023-05-13T09:35:53;9.10;;;5.72;;
20908;SDS011;10614;53.198;6.570;2023-05-13T09:37:55;8.77;;;5.93;;
20908;SDS011;10614;53.198;6.570;2023-05-13T09:39:57;8.70;;;6.38;;
20908;SDS011;10614;53.198;6.570;2023-05-13T09:42:00;8.90;;;5.18;;
20908;SDS011;10614;53.198;6.570;2023-05-13T09:44:03;9.05;;;5.35;;
20908;SDS011;10614;53.198;6.570;2023-05-13T09:46:04;9.13;;;5.95;;
20908;SDS011;10614;53.198;6.570;2023-05-13T09:48:10;10.93;;;6.65;;
20908;SDS011;10614;53.198;6.570;2023-05-13T09:50:13;8.15;;;5.75;;
20908;SDS011;10614;53.198;6.570;2023-05-13T09:52:15;13.02;;;6.10;;
20908;SDS011;10614;53.198;6.570;2023-05-13T09:54:17;11.75;;;6.05;;
20908;SDS011;10614;53.198;6.570;2023-05-13T09:56:20;9.27;;;6.32;;
20908;SDS011;10614;53.198;6.570;2023-05-13T09:58:25;8.30;;;5.68;;
20908;SDS011;10614;53.198;6.570;2023-05-13T10:00:29;8.65;;;6.00;;
20908;SDS011;10614;53.198;6.570;2023-05-13T10:02:32;10.75;;;5.97;;
20908;SDS011;10614;53.198;6.570;2023-05-13T10:04:36;10.80;;;6.25;;
20908;SDS011;10614;53.198;6.570;2023-05-13T10:06:38;8.23;;;5.60;;
20908;SDS011;10614;53.198;6.570;2023-05-13T10:08:40;10.88;;;6.30;;
20908;SDS011;10614;53.198;6.570;2023-05-13T10:10:43;8.25;;;6.13;;
20908;SDS011;10614;53.198;6.570;2023-05-13T10:12:47;10.98;;;6.20;;
20908;SDS011;10614;53.198;6.570;2023-05-13T10:14:52;8.52;;;5.82;;
20908;SDS011;10614;53.198;6.570;2023-05-13T10:16:55;10.20;;;6.15;;
20908;SDS011;10614;53.198;6.570;2023-05-13T10:18:59;15.70;;;7.30;;
20908;SDS011;10614;53.198;6.570;2023-05-13T10:21:04;12.10;;;7.20;;
20908;SDS011;10614;53.198;6.570;2023-05-13T10:23:06;15.57;;;7.75;;
20908;SDS011;10614;53.198;6.570;2023-05-13T10:25:09;11.05;;;7.03;;
20908;SDS011;10614;53.198;6.570;2023-05-13T10:27:11;11.38;;;7.22;;
20908;SDS011;10614;53.198;6.570;2023-05-13T10:29:14;10.65;;;6.90;;
20908;SDS011;10614;53.198;6.570;2023-05-13T10:31:17;10.32;;;5.95;;
20908;SDS011;10614;53.198;6.570;2023-05-13T10:33:19;7.75;;;6.05;;
20908;SDS011;10614;53.198;6.570;2023-05-13T10:35:22;8.52;;;6.35;;
20908;SDS011;10614;53.198;6.570;2023-05-13T10:37:36;7.82;;;6.05;;
20908;SDS011;10614;53.198;6.570;2023-05-13T10:40:01;9.23;;;5.43;;
20908;SDS011;10614;53.198;6.570;2023-05-13T10:42:35;11.15;;;6.80;;
20908;SDS011;10614;53.198;6.570;2023-05-13T10:44:40;14.13;;;7.57;;
20908;SDS011;10614;53.198;6.570;2023-05-13T10:46:42;13.25;;;7.60;;
20908;SDS011;10614;53.198;6.570;2023-05-13T10:48:46;8.27;;;6.15;;
20908;SDS011;10614;53.198;6.570;2023-05-13T10:50:52;8.25;;;6.05;;
20908;SDS011;10614;53.198;6.570;2023-05-13T10:52:57;9.60;;;5.47;;
20908;SDS011;10614;53.198;6.570;2023-05-13T10:55:00;9.70;;;6.03;;
20908;SDS011;10614;53.198;6.570;2023-05-13T10:57:03;8.95;;;5.68;;
20908;SDS011;10614;53.198;6.570;2023-05-13T10:59:05;9.95;;;5.32;;
20908;SDS011;10614;53.198;6.570;2023-05-13T11:01:16;6.88;;;5.07;;
20908;SDS011;10614;53.198;6.570;2023-05-13T11:03:26;7.97;;;5.10;;
20908;SDS011;10614;53.198;6.570;2023-05-13T11:05:29;7.72;;;4.93;;
20908;SDS011;10614;53.198;6.570;2023-05-13T11:07:32;12.10;;;6.47;;
20908;SDS011;10614;53.198;6.570;2023-05-13T11:09:40;9.65;;;5.93;;
20908;SDS011;10614;53.198;6.570;2023-05-13T11:11:51;9.63;;;5.82;;
20908;SDS011;10614;53.198;6.570;2023-05-13T11:13:54;6.07;;;4.60;;
20908;SDS011;10614;53.198;6.570;2023-05-13T11:16:04;7.28;;;5.30;;
20908;SDS011;10614;53.198;6.570;2023-05-13T11:18:08;9.70;;;6.20;;
20908;SDS011;10614;53.198;6.570;2023-05-13T11:20:09;10.60;;;5.53;;
20908;SDS011;10614;53.198;6.570;2023-05-13T11:22:12;9.38;;;6.25;;
20908;SDS011;10614;53.198;6.570;2023-05-13T11:24:16;12.10;;;6.50;;
20908;SDS011;10614;53.198;6.570;2023-05-13T11:26:20;11.48;;;6.03;;
20908;SDS011;10614;53.198;6.570;2023-05-13T11:28:28;8.35;;;5.57;;
20908;SDS011;10614;53.198;6.570;2023-05-13T11:30:54;8.90;;;5.50;;
20908;SDS011;10614;53.198;6.570;2023-05-13T11:32:56;7.50;;;5.30;;
20908;SDS011;10614;53.198;6.570;2023-05-13T11:34:59;7.95;;;5.57;;
20908;SDS011;10614;53.198;6.570;2023-05-13T11:37:09;15.70;;;7.72;;
20908;SDS011;10614;53.198;6.570;2023-05-13T11:39:12;11.43;;;6.45;;
20908;SDS011;10614;53.198;6.570;2023-05-13T11:41:15;11.03;;;6.43;;
20908;SDS011;10614;53.198;6.570;2023-05-13T11:43:19;8.95;;;6.15;;
20908;SDS011;10614;53.198;6.570;2023-05-13T11:45:22;8.88;;;5.68;;
20908;SDS011;10614;53.198;6.570;2023-05-13T11:47:26;8.13;;;5.60;;
20908;SDS011;10614;53.198;6.570;2023-05-13T11:49:31;10.13;;;6.22;;
20908;SDS011;10614;53.198;6.570;2023-05-13T11:51:34;7.82;;;5.40;;
20908;SDS011;10614;53.198;6.570;2023-05-13T11:53:35;12.13;;;6.22;;
20908;SDS011;10614;53.198;6.570;2023-05-13T11:55:37;8.68;;;6.35;;
20908;SDS011;10614;53.198;6.570;2023-05-13T11:57:39;12.63;;;8.10;;
20908;SDS011;10614;53.198;6.570;2023-05-13T11:59:49;10.07;;;6.47;;
20908;SDS011;10614;53.198;6.570;2023-05-13T12:01:58;10.70;;;5.47;;
20908;SDS011;10614;53.198;6.570;2023-05-13T12:04:00;12.13;;;6.85;;
20908;SDS011;10614;53.198;6.570;2023-05-13T12:06:02;11.43;;;6.80;;
20908;SDS011;10614;53.198;6.570;2023-05-13T12:08:05;10.07;;;6.60;;
20908;SDS011;10614;53.198;6.570;2023-05-13T12:12:12;9.10;;;6.28;;
20908;SDS011;10614;53.198;6.570;2023-05-13T12:14:15;10.55;;;6.35;;
20908;SDS011;10614;53.198;6.570;2023-05-13T12:16:19;10.73;;;7.43;;
20908;SDS011;10614;53.198;6.570;2023-05-13T12:18:21;12.63;;;6.67;;
20908;SDS011;10614;53.198;6.570;2023-05-13T12:20:23;10.23;;;6.00;;